Ossett, United Kingdom
Current Conditions -  °F | °C
As of 4:50 AM on Saturday 29 Nov 2014 (Local Time) from EGNM Reporting Station
Moderate Fog Moderate Fog  
Wind Chill:   Ceiling: Unl
Heat Index:   Visibility: 0.18mi
Dew Point:   Wind: 8mph
Humidity: 100%   Direction: 110°ESE
Pressure: 29.83"   Gusts: NA
Location:  53.68°N, 1.58°W
Report Text: EGNM 290450Z 11007KT 070V140 0300 FG VV/// 08/08 Q1010
Loading
Personal Weather Stations






























Interactive Weather Map New forecast layout! Learn more

10-Day Weather Forecast

Advertisements
Track Severe Weather on mobile